sensor_id;sensor_type;location;lat;lon;timestamp;P1;durP1;ratioP1;P2;durP2;ratioP2
31848;SDS011;18414;59.352;18.152;2023-05-07T00:00:12;3.40;;;2.50;;
31848;SDS011;18414;59.352;18.152;2023-05-07T00:02:40;5.30;;;2.57;;
31848;SDS011;18414;59.352;18.152;2023-05-07T00:05:06;3.03;;;2.23;;
31848;SDS011;18414;59.352;18.152;2023-05-07T00:07:32;5.83;;;2.60;;
31848;SDS011;18414;59.352;18.152;2023-05-07T00:09:57;5.20;;;2.63;;
31848;SDS011;18414;59.352;18.152;2023-05-07T00:12:22;4.87;;;2.37;;
31848;SDS011;18414;59.352;18.152;2023-05-07T00:14:48;6.77;;;2.40;;
31848;SDS011;18414;59.352;18.152;2023-05-07T00:17:13;5.93;;;2.43;;
31848;SDS011;18414;59.352;18.152;2023-05-07T00:19:38;3.83;;;2.40;;
31848;SDS011;18414;59.352;18.152;2023-05-07T00:22:04;6.03;;;2.50;;
31848;SDS011;18414;59.352;18.152;2023-05-07T00:24:29;5.57;;;2.40;;
31848;SDS011;18414;59.352;18.152;2023-05-07T00:26:55;6.23;;;2.47;;
31848;SDS011;18414;59.352;18.152;2023-05-07T00:29:20;7.87;;;2.40;;
31848;SDS011;18414;59.352;18.152;2023-05-07T00:31:45;4.33;;;2.37;;
31848;SDS011;18414;59.352;18.152;2023-05-07T00:34:11;5.70;;;2.33;;
31848;SDS011;18414;59.352;18.152;2023-05-07T00:36:36;2.90;;;2.20;;
31848;SDS011;18414;59.352;18.152;2023-05-07T00:39:01;3.90;;;2.30;;
31848;SDS011;18414;59.352;18.152;2023-05-07T00:41:28;5.87;;;2.50;;
31848;SDS011;18414;59.352;18.152;2023-05-07T00:43:55;3.17;;;2.17;;
31848;SDS011;18414;59.352;18.152;2023-05-07T00:46:20;3.77;;;2.30;;
31848;SDS011;18414;59.352;18.152;2023-05-07T00:48:46;3.40;;;2.40;;
31848;SDS011;18414;59.352;18.152;2023-05-07T00:51:12;8.10;;;2.50;;
31848;SDS011;18414;59.352;18.152;2023-05-07T00:53:37;3.47;;;2.27;;
31848;SDS011;18414;59.352;18.152;2023-05-07T00:56:03;5.57;;;2.50;;
31848;SDS011;18414;59.352;18.152;2023-05-07T00:58:28;4.37;;;2.50;;
31848;SDS011;18414;59.352;18.152;2023-05-07T01:00:55;4.07;;;2.37;;
31848;SDS011;18414;59.352;18.152;2023-05-07T01:03:20;3.57;;;2.30;;
31848;SDS011;18414;59.352;18.152;2023-05-07T01:05:45;3.10;;;2.40;;
31848;SDS011;18414;59.352;18.152;2023-05-07T01:08:12;3.37;;;2.47;;
31848;SDS011;18414;59.352;18.152;2023-05-07T01:10:38;4.10;;;2.50;;
31848;SDS011;18414;59.352;18.152;2023-05-07T01:13:07;4.30;;;2.43;;
31848;SDS011;18414;59.352;18.152;2023-05-07T01:15:33;6.13;;;2.40;;
31848;SDS011;18414;59.352;18.152;2023-05-07T01:17:59;4.60;;;2.33;;
31848;SDS011;18414;59.352;18.152;2023-05-07T01:20:25;6.17;;;2.33;;
31848;SDS011;18414;59.352;18.152;2023-05-07T01:22:51;4.20;;;2.40;;
31848;SDS011;18414;59.352;18.152;2023-05-07T01:25:16;3.33;;;2.23;;
31848;SDS011;18414;59.352;18.152;2023-05-07T01:27:42;3.67;;;2.50;;
31848;SDS011;18414;59.352;18.152;2023-05-07T01:30:07;6.37;;;2.40;;
31848;SDS011;18414;59.352;18.152;2023-05-07T01:32:43;5.67;;;2.30;;
31848;SDS011;18414;59.352;18.152;2023-05-07T01:35:18;2.50;;;2.20;;
31848;SDS011;18414;59.352;18.152;2023-05-07T01:37:45;3.77;;;2.30;;
31848;SDS011;18414;59.352;18.152;2023-05-07T01:40:11;3.03;;;2.07;;
31848;SDS011;18414;59.352;18.152;2023-05-07T01:42:37;3.97;;;2.10;;
31848;SDS011;18414;59.352;18.152;2023-05-07T01:45:02;4.80;;;2.17;;
31848;SDS011;18414;59.352;18.152;2023-05-07T01:47:28;3.63;;;2.23;;
31848;SDS011;18414;59.352;18.152;2023-05-07T01:49:54;4.73;;;2.40;;
31848;SDS011;18414;59.352;18.152;2023-05-07T01:52:20;5.37;;;2.03;;
31848;SDS011;18414;59.352;18.152;2023-05-07T01:54:45;3.47;;;2.40;;
31848;SDS011;18414;59.352;18.152;2023-05-07T01:57:11;2.60;;;2.00;;
31848;SDS011;18414;59.352;18.152;2023-05-07T01:59:36;3.10;;;2.27;;
31848;SDS011;18414;59.352;18.152;2023-05-07T02:02:01;3.50;;;2.13;;
31848;SDS011;18414;59.352;18.152;2023-05-07T02:04:27;3.60;;;2.20;;
31848;SDS011;18414;59.352;18.152;2023-05-07T02:06:52;2.80;;;2.00;;
31848;SDS011;18414;59.352;18.152;2023-05-07T02:09:18;3.73;;;2.40;;
31848;SDS011;18414;59.352;18.152;2023-05-07T02:11:43;7.17;;;2.07;;
31848;SDS011;18414;59.352;18.152;2023-05-07T02:14:09;3.00;;;2.10;;
31848;SDS011;18414;59.352;18.152;2023-05-07T02:16:35;3.47;;;2.10;;
31848;SDS011;18414;59.352;18.152;2023-05-07T02:19:00;3.47;;;2.13;;
31848;SDS011;18414;59.352;18.152;2023-05-07T02:21:25;5.33;;;2.37;;
31848;SDS011;18414;59.352;18.152;2023-05-07T02:23:50;4.20;;;2.30;;
31848;SDS011;18414;59.352;18.152;2023-05-07T02:26:16;3.03;;;2.40;;
31848;SDS011;18414;59.352;18.152;2023-05-07T02:28:41;7.73;;;2.30;;
31848;SDS011;18414;59.352;18.152;2023-05-07T02:31:06;2.30;;;2.03;;
31848;SDS011;18414;59.352;18.152;2023-05-07T02:33:32;4.27;;;2.40;;
31848;SDS011;18414;59.352;18.152;2023-05-07T02:36:04;3.97;;;2.20;;
31848;SDS011;18414;59.352;18.152;2023-05-07T02:38:31;3.70;;;2.00;;
31848;SDS011;18414;59.352;18.152;2023-05-07T02:40:56;3.90;;;2.13;;
31848;SDS011;18414;59.352;18.152;2023-05-07T02:43:21;2.77;;;2.40;;
31848;SDS011;18414;59.352;18.152;2023-05-07T02:45:47;3.67;;;2.07;;
31848;SDS011;18414;59.352;18.152;2023-05-07T02:48:12;3.90;;;2.57;;
31848;SDS011;18414;59.352;18.152;2023-05-07T02:50:37;4.50;;;2.00;;
31848;SDS011;18414;59.352;18.152;2023-05-07T02:53:02;4.40;;;2.17;;
31848;SDS011;18414;59.352;18.152;2023-05-07T02:55:28;3.20;;;2.00;;
31848;SDS011;18414;59.352;18.152;2023-05-07T02:57:53;4.00;;;2.60;;
31848;SDS011;18414;59.352;18.152;2023-05-07T03:00:19;6.67;;;3.87;;
31848;SDS011;18414;59.352;18.152;2023-05-07T03:02:45;7.77;;;3.97;;
31848;SDS011;18414;59.352;18.152;2023-05-07T03:05:10;4.67;;;3.27;;
31848;SDS011;18414;59.352;18.152;2023-05-07T03:07:36;3.70;;;2.67;;
31848;SDS011;18414;59.352;18.152;2023-05-07T03:10:02;2.57;;;2.10;;
31848;SDS011;18414;59.352;18.152;2023-05-07T03:12:28;3.87;;;2.47;;
31848;SDS011;18414;59.352;18.152;2023-05-07T03:14:54;4.20;;;2.37;;
31848;SDS011;18414;59.352;18.152;2023-05-07T03:17:20;3.53;;;2.10;;
31848;SDS011;18414;59.352;18.152;2023-05-07T03:19:45;4.77;;;2.60;;
31848;SDS011;18414;59.352;18.152;2023-05-07T03:22:10;4.20;;;2.43;;
31848;SDS011;18414;59.352;18.152;2023-05-07T03:24:36;4.93;;;2.43;;
31848;SDS011;18414;59.352;18.152;2023-05-07T03:27:01;4.60;;;2.40;;
31848;SDS011;18414;59.352;18.152;2023-05-07T03:29:26;2.90;;;2.20;;
31848;SDS011;18414;59.352;18.152;2023-05-07T03:31:52;5.47;;;2.13;;
31848;SDS011;18414;59.352;18.152;2023-05-07T03:34:17;8.53;;;2.37;;
31848;SDS011;18414;59.352;18.152;2023-05-07T03:36:47;5.30;;;2.77;;
31848;SDS011;18414;59.352;18.152;2023-05-07T03:39:15;4.00;;;2.43;;
31848;SDS011;18414;59.352;18.152;2023-05-07T03:41:40;3.90;;;2.60;;
31848;SDS011;18414;59.352;18.152;2023-05-07T03:44:06;3.10;;;2.37;;
31848;SDS011;18414;59.352;18.152;2023-05-07T03:46:33;3.50;;;2.67;;
31848;SDS011;18414;59.352;18.152;2023-05-07T03:48:58;4.53;;;2.93;;
31848;SDS011;18414;59.352;18.152;2023-05-07T03:51:24;8.53;;;2.30;;
31848;SDS011;18414;59.352;18.152;2023-05-07T03:53:50;5.43;;;2.70;;
31848;SDS011;18414;59.352;18.152;2023-05-07T03:56:17;8.57;;;2.90;;
31848;SDS011;18414;59.352;18.152;2023-05-07T03:58:43;6.37;;;2.67;;
31848;SDS011;18414;59.352;18.152;2023-05-07T04:01:09;6.60;;;2.73;;
31848;SDS011;18414;59.352;18.152;2023-05-07T04:03:34;3.20;;;2.33;;
31848;SDS011;18414;59.352;18.152;2023-05-07T04:05:59;3.90;;;2.53;;
31848;SDS011;18414;59.352;18.152;2023-05-07T04:08:25;3.73;;;2.50;;
31848;SDS011;18414;59.352;18.152;2023-05-07T04:10:57;2.93;;;2.40;;
31848;SDS011;18414;59.352;18.152;2023-05-07T04:13:22;3.90;;;2.30;;
31848;SDS011;18414;59.352;18.152;2023-05-07T04:15:48;4.77;;;2.60;;
31848;SDS011;18414;59.352;18.152;2023-05-07T04:18:14;3.93;;;2.67;;
31848;SDS011;18414;59.352;18.152;2023-05-07T04:20:39;2.80;;;2.50;;
31848;SDS011;18414;59.352;18.152;2023-05-07T04:23:05;3.33;;;2.40;;
31848;SDS011;18414;59.352;18.152;2023-05-07T04:25:30;3.17;;;2.60;;
31848;SDS011;18414;59.352;18.152;2023-05-07T04:27:56;3.93;;;2.50;;
31848;SDS011;18414;59.352;18.152;2023-05-07T04:30:21;3.23;;;2.50;;
31848;SDS011;18414;59.352;18.152;2023-05-07T04:32:46;3.63;;;2.30;;
31848;SDS011;18414;59.352;18.152;2023-05-07T04:35:13;3.17;;;2.50;;
31848;SDS011;18414;59.352;18.152;2023-05-07T04:37:38;4.30;;;2.23;;
31848;SDS011;18414;59.352;18.152;2023-05-07T04:40:03;3.47;;;2.13;;
31848;SDS011;18414;59.352;18.152;2023-05-07T04:42:29;3.00;;;2.40;;
31848;SDS011;18414;59.352;18.152;2023-05-07T04:44:56;2.93;;;2.33;;
31848;SDS011;18414;59.352;18.152;2023-05-07T04:47:21;3.23;;;2.37;;
31848;SDS011;18414;59.352;18.152;2023-05-07T04:49:46;2.57;;;2.37;;
31848;SDS011;18414;59.352;18.152;2023-05-07T04:52:12;2.70;;;2.30;;
31848;SDS011;18414;59.352;18.152;2023-05-07T04:54:37;3.33;;;2.37;;
31848;SDS011;18414;59.352;18.152;2023-05-07T04:57:05;3.17;;;2.30;;
31848;SDS011;18414;59.352;18.152;2023-05-07T04:59:31;2.67;;;2.17;;
31848;SDS011;18414;59.352;18.152;2023-05-07T05:01:57;2.73;;;2.10;;
31848;SDS011;18414;59.352;18.152;2023-05-07T05:04:22;3.67;;;1.90;;
31848;SDS011;18414;59.352;18.152;2023-05-07T05:06:48;3.27;;;1.97;;
31848;SDS011;18414;59.352;18.152;2023-05-07T05:09:13;3.40;;;1.83;;
31848;SDS011;18414;59.352;18.152;2023-05-07T05:11:39;2.43;;;2.10;;
31848;SDS011;18414;59.352;18.152;2023-05-07T05:14:04;2.73;;;2.13;;
31848;SDS011;18414;59.352;18.152;2023-05-07T05:16:30;3.43;;;2.10;;
31848;SDS011;18414;59.352;18.152;2023-05-07T05:18:55;4.20;;;2.10;;
31848;SDS011;18414;59.352;18.152;2023-05-07T05:21:21;2.27;;;2.00;;
31848;SDS011;18414;59.352;18.152;2023-05-07T05:23:46;2.70;;;2.10;;
31848;SDS011;18414;59.352;18.152;2023-05-07T05:26:12;5.13;;;2.40;;
31848;SDS011;18414;59.352;18.152;2023-05-07T05:28:37;3.63;;;2.37;;
31848;SDS011;18414;59.352;18.152;2023-05-07T05:31:03;3.40;;;2.17;;
31848;SDS011;18414;59.352;18.152;2023-05-07T05:33:28;2.20;;;2.00;;
31848;SDS011;18414;59.352;18.152;2023-05-07T05:35:54;2.50;;;2.30;;
31848;SDS011;18414;59.352;18.152;2023-05-07T05:38:19;5.57;;;2.30;;
31848;SDS011;18414;59.352;18.152;2023-05-07T05:40:45;2.73;;;2.10;;
31848;SDS011;18414;59.352;18.152;2023-05-07T05:43:11;3.87;;;2.23;;
31848;SDS011;18414;59.352;18.152;2023-05-07T05:45:36;2.53;;;1.97;;
31848;SDS011;18414;59.352;18.152;2023-05-07T05:48:02;2.83;;;2.20;;
31848;SDS011;18414;59.352;18.152;2023-05-07T05:50:28;2.30;;;1.97;;
31848;SDS011;18414;59.352;18.152;2023-05-07T05:52:54;2.80;;;2.00;;
31848;SDS011;18414;59.352;18.152;2023-05-07T05:55:19;3.17;;;1.90;;
31848;SDS011;18414;59.352;18.152;2023-05-07T05:57:45;2.60;;;1.90;;
31848;SDS011;18414;59.352;18.152;2023-05-07T06:00:11;2.13;;;1.87;;
31848;SDS011;18414;59.352;18.152;2023-05-07T06:02:36;2.60;;;1.80;;
31848;SDS011;18414;59.352;18.152;2023-05-07T06:05:02;2.30;;;1.80;;
31848;SDS011;18414;59.352;18.152;2023-05-07T06:07:28;4.27;;;1.63;;
31848;SDS011;18414;59.352;18.152;2023-05-07T06:09:53;2.60;;;2.00;;
31848;SDS011;18414;59.352;18.152;2023-05-07T06:12:18;1.83;;;1.63;;
31848;SDS011;18414;59.352;18.152;2023-05-07T06:14:45;2.37;;;1.50;;
31848;SDS011;18414;59.352;18.152;2023-05-07T06:17:10;1.77;;;1.67;;
31848;SDS011;18414;59.352;18.152;2023-05-07T06:19:36;1.70;;;1.60;;
31848;SDS011;18414;59.352;18.152;2023-05-07T06:22:01;2.33;;;1.60;;
31848;SDS011;18414;59.352;18.152;2023-05-07T06:24:27;1.80;;;1.60;;
31848;SDS011;18414;59.352;18.152;2023-05-07T06:26:52;1.70;;;1.60;;
31848;SDS011;18414;59.352;18.152;2023-05-07T06:29:18;2.17;;;1.50;;
31848;SDS011;18414;59.352;18.152;2023-05-07T06:31:43;1.73;;;1.40;;
31848;SDS011;18414;59.352;18.152;2023-05-07T06:34:09;2.23;;;1.70;;
31848;SDS011;18414;59.352;18.152;2023-05-07T06:36:34;1.50;;;1.37;;
31848;SDS011;18414;59.352;18.152;2023-05-07T06:39:00;2.10;;;1.70;;
31848;SDS011;18414;59.352;18.152;2023-05-07T06:41:26;1.47;;;1.37;;
31848;SDS011;18414;59.352;18.152;2023-05-07T06:43:51;4.73;;;1.70;;
31848;SDS011;18414;59.352;18.152;2023-05-07T06:46:18;2.23;;;1.50;;
31848;SDS011;18414;59.352;18.152;2023-05-07T06:48:43;3.60;;;1.57;;
31848;SDS011;18414;59.352;18.152;2023-05-07T06:51:10;2.67;;;1.57;;
31848;SDS011;18414;59.352;18.152;2023-05-07T06:53:35;2.30;;;1.67;;
31848;SDS011;18414;59.352;18.152;2023-05-07T06:56:00;1.50;;;1.40;;
31848;SDS011;18414;59.352;18.152;2023-05-07T06:58:26;2.10;;;1.73;;
31848;SDS011;18414;59.352;18.152;2023-05-07T07:00:51;1.70;;;1.40;;
31848;SDS011;18414;59.352;18.152;2023-05-07T07:03:17;2.03;;;1.50;;
31848;SDS011;18414;59.352;18.152;2023-05-07T07:05:43;2.40;;;1.70;;
31848;SDS011;18414;59.352;18.152;2023-05-07T07:08:09;3.53;;;1.53;;
31848;SDS011;18414;59.352;18.152;2023-05-07T07:10:34;2.13;;;1.40;;
31848;SDS011;18414;59.352;18.152;2023-05-07T07:13:00;2.00;;;1.50;;
31848;SDS011;18414;59.352;18.152;2023-05-07T07:15:25;1.67;;;1.50;;
31848;SDS011;18414;59.352;18.152;2023-05-07T07:17:51;2.50;;;1.47;;
31848;SDS011;18414;59.352;18.152;2023-05-07T07:20:16;3.17;;;1.70;;
31848;SDS011;18414;59.352;18.152;2023-05-07T07:22:43;1.80;;;1.43;;
31848;SDS011;18414;59.352;18.152;2023-05-07T07:25:08;2.73;;;1.53;;
31848;SDS011;18414;59.352;18.152;2023-05-07T07:27:34;2.07;;;1.60;;
31848;SDS011;18414;59.352;18.152;2023-05-07T07:29:59;2.50;;;1.93;;
31848;SDS011;18414;59.352;18.152;2023-05-07T07:32:25;1.53;;;1.43;;
31848;SDS011;18414;59.352;18.152;2023-05-07T07:34:50;1.70;;;1.33;;
31848;SDS011;18414;59.352;18.152;2023-05-07T07:37:16;3.00;;;1.80;;
31848;SDS011;18414;59.352;18.152;2023-05-07T07:39:42;1.53;;;1.43;;
31848;SDS011;18414;59.352;18.152;2023-05-07T07:42:07;3.47;;;1.87;;
31848;SDS011;18414;59.352;18.152;2023-05-07T07:44:32;1.73;;;1.50;;
31848;SDS011;18414;59.352;18.152;2023-05-07T07:46:58;4.37;;;3.07;;
31848;SDS011;18414;59.352;18.152;2023-05-07T07:49:23;4.73;;;2.63;;
31848;SDS011;18414;59.352;18.152;2023-05-07T07:51:48;11.10;;;5.90;;
31848;SDS011;18414;59.352;18.152;2023-05-07T07:54:14;6.27;;;3.27;;
31848;SDS011;18414;59.352;18.152;2023-05-07T07:56:39;1.87;;;1.63;;
31848;SDS011;18414;59.352;18.152;2023-05-07T07:59:04;4.30;;;2.00;;
31848;SDS011;18414;59.352;18.152;2023-05-07T08:01:30;4.50;;;2.63;;
31848;SDS011;18414;59.352;18.152;2023-05-07T08:03:55;2.57;;;2.20;;
31848;SDS011;18414;59.352;18.152;2023-05-07T08:06:23;6.97;;;2.53;;
31848;SDS011;18414;59.352;18.152;2023-05-07T08:08:50;4.37;;;2.70;;
31848;SDS011;18414;59.352;18.152;2023-05-07T08:11:15;3.43;;;2.47;;
31848;SDS011;18414;59.352;18.152;2023-05-07T08:13:40;2.27;;;1.80;;
31848;SDS011;18414;59.352;18.152;2023-05-07T08:16:06;2.47;;;1.63;;
31848;SDS011;18414;59.352;18.152;2023-05-07T08:18:31;2.17;;;1.50;;
31848;SDS011;18414;59.352;18.152;2023-05-07T08:20:57;3.13;;;1.77;;
31848;SDS011;18414;59.352;18.152;2023-05-07T08:23:22;2.63;;;1.77;;
31848;SDS011;18414;59.352;18.152;2023-05-07T08:25:48;4.13;;;1.63;;
31848;SDS011;18414;59.352;18.152;2023-05-07T08:28:14;1.77;;;1.20;;
31848;SDS011;18414;59.352;18.152;2023-05-07T08:30:39;2.57;;;1.37;;
31848;SDS011;18414;59.352;18.152;2023-05-07T08:33:05;2.03;;;1.60;;
31848;SDS011;18414;59.352;18.152;2023-05-07T08:35:30;1.80;;;1.67;;
31848;SDS011;18414;59.352;18.152;2023-05-07T08:37:56;1.73;;;1.40;;
31848;SDS011;18414;59.352;18.152;2023-05-07T08:40:24;2.43;;;1.60;;
31848;SDS011;18414;59.352;18.152;2023-05-07T08:42:51;2.73;;;1.67;;
31848;SDS011;18414;59.352;18.152;2023-05-07T08:45:17;1.70;;;1.60;;
31848;SDS011;18414;59.352;18.152;2023-05-07T08:47:45;1.90;;;1.50;;
31848;SDS011;18414;59.352;18.152;2023-05-07T08:50:12;1.30;;;1.20;;
31848;SDS011;18414;59.352;18.152;2023-05-07T08:52:38;3.33;;;1.40;;
31848;SDS011;18414;59.352;18.152;2023-05-07T08:55:05;1.50;;;1.40;;
31848;SDS011;18414;59.352;18.152;2023-05-07T08:57:31;3.50;;;1.20;;
31848;SDS011;18414;59.352;18.152;2023-05-07T08:59:57;1.50;;;1.33;;
31848;SDS011;18414;59.352;18.152;2023-05-07T09:02:22;3.10;;;1.50;;
31848;SDS011;18414;59.352;18.152;2023-05-07T09:04:47;1.57;;;1.47;;
31848;SDS011;18414;59.352;18.152;2023-05-07T09:07:13;2.20;;;1.50;;
31848;SDS011;18414;59.352;18.152;2023-05-07T09:09:38;2.93;;;1.40;;
31848;SDS011;18414;59.352;18.152;2023-05-07T09:12:04;2.47;;;1.50;;
31848;SDS011;18414;59.352;18.152;2023-05-07T09:14:29;3.90;;;1.60;;
31848;SDS011;18414;59.352;18.152;2023-05-07T09:16:55;1.70;;;1.27;;
31848;SDS011;18414;59.352;18.152;2023-05-07T09:19:24;1.67;;;1.40;;
31848;SDS011;18414;59.352;18.152;2023-05-07T09:21:57;1.70;;;1.40;;
31848;SDS011;18414;59.352;18.152;2023-05-07T09:24:23;2.30;;;1.53;;
31848;SDS011;18414;59.352;18.152;2023-05-07T09:26:48;2.43;;;1.47;;
31848;SDS011;18414;59.352;18.152;2023-05-07T09:29:15;1.57;;;1.40;;
31848;SDS011;18414;59.352;18.152;2023-05-07T09:31:42;1.73;;;1.60;;
31848;SDS011;18414;59.352;18.152;2023-05-07T09:34:07;1.80;;;1.30;;
31848;SDS011;18414;59.352;18.152;2023-05-07T09:36:33;1.83;;;1.30;;
31848;SDS011;18414;59.352;18.152;2023-05-07T09:39:01;1.70;;;1.60;;
31848;SDS011;18414;59.352;18.152;2023-05-07T09:41:28;2.50;;;1.30;;
31848;SDS011;18414;59.352;18.152;2023-05-07T09:43:55;2.53;;;1.80;;
31848;SDS011;18414;59.352;18.152;2023-05-07T09:46:23;2.57;;;1.70;;
31848;SDS011;18414;59.352;18.152;2023-05-07T09:48:50;4.93;;;1.40;;
31848;SDS011;18414;59.352;18.152;2023-05-07T09:51:21;3.07;;;1.50;;
31848;SDS011;18414;59.352;18.152;2023-05-07T09:53:52;1.57;;;1.40;;
31848;SDS011;18414;59.352;18.152;2023-05-07T09:56:17;1.60;;;1.40;;
31848;SDS011;18414;59.352;18.152;2023-05-07T09:58:43;2.37;;;1.53;;
31848;SDS011;18414;59.352;18.152;2023-05-07T10:01:10;3.07;;;1.60;;
31848;SDS011;18414;59.352;18.152;2023-05-07T10:03:36;1.60;;;1.50;;
31848;SDS011;18414;59.352;18.152;2023-05-07T10:06:05;2.10;;;1.70;;
31848;SDS011;18414;59.352;18.152;2023-05-07T10:08:30;2.77;;;1.50;;
31848;SDS011;18414;59.352;18.152;2023-05-07T10:10:56;2.03;;;1.50;;
31848;SDS011;18414;59.352;18.152;2023-05-07T10:13:21;2.50;;;1.77;;
31848;SDS011;18414;59.352;18.152;2023-05-07T10:15:47;4.00;;;2.00;;
31848;SDS011;18414;59.352;18.152;2023-05-07T10:18:12;3.40;;;1.57;;
31848;SDS011;18414;59.352;18.152;2023-05-07T10:20:38;2.03;;;1.43;;
31848;SDS011;18414;59.352;18.152;2023-05-07T10:23:04;1.70;;;1.57;;
31848;SDS011;18414;59.352;18.152;2023-05-07T10:25:31;1.67;;;1.40;;
31848;SDS011;18414;59.352;18.152;2023-05-07T10:27:59;2.67;;;1.57;;
31848;SDS011;18414;59.352;18.152;2023-05-07T10:30:31;1.57;;;1.47;;
31848;SDS011;18414;59.352;18.152;2023-05-07T10:33:10;2.30;;;1.50;;
31848;SDS011;18414;59.352;18.152;2023-05-07T10:35:40;2.60;;;1.60;;
31848;SDS011;18414;59.352;18.152;2023-05-07T10:38:06;2.00;;;1.80;;
31848;SDS011;18414;59.352;18.152;2023-05-07T10:40:32;2.80;;;1.33;;
31848;SDS011;18414;59.352;18.152;2023-05-07T10:43:01;2.30;;;1.70;;
31848;SDS011;18414;59.352;18.152;2023-05-07T10:45:30;4.17;;;1.60;;
31848;SDS011;18414;59.352;18.152;2023-05-07T10:50:40;1.97;;;1.70;;
31848;SDS011;18414;59.352;18.152;2023-05-07T10:53:27;2.77;;;1.70;;
31848;SDS011;18414;59.352;18.152;2023-05-07T10:56:23;1.83;;;1.43;;
31848;SDS011;18414;59.352;18.152;2023-05-07T10:58:44;2.10;;;1.50;;
31848;SDS011;18414;59.352;18.152;2023-05-07T11:01:09;1.83;;;1.50;;
31848;SDS011;18414;59.352;18.152;2023-05-07T11:04:12;1.73;;;1.53;;
31848;SDS011;18414;59.352;18.152;2023-05-07T11:06:40;2.13;;;1.70;;
31848;SDS011;18414;59.352;18.152;2023-05-07T11:09:05;2.57;;;1.60;;
31848;SDS011;18414;59.352;18.152;2023-05-07T11:17:08;2.83;;;1.70;;
31848;SDS011;18414;59.352;18.152;2023-05-07T11:19:56;3.73;;;1.33;;
31848;SDS011;18414;59.352;18.152;2023-05-07T11:24:56;2.83;;;1.50;;
31848;SDS011;18414;59.352;18.152;2023-05-07T11:27:26;1.73;;;1.40;;
31848;SDS011;18414;59.352;18.152;2023-05-07T11:29:52;2.77;;;1.47;;
31848;SDS011;18414;59.352;18.152;2023-05-07T11:34:52;2.17;;;1.53;;
31848;SDS011;18414;59.352;18.152;2023-05-07T11:37:18;2.40;;;1.33;;
31848;SDS011;18414;59.352;18.152;2023-05-07T11:39:44;2.37;;;1.40;;
31848;SDS011;18414;59.352;18.152;2023-05-07T11:42:27;1.90;;;1.40;;
31848;SDS011;18414;59.352;18.152;2023-05-07T11:44:56;2.40;;;1.80;;
31848;SDS011;18414;59.352;18.152;2023-05-07T11:47:22;2.30;;;1.63;;
31848;SDS011;18414;59.352;18.152;2023-05-07T11:49:49;2.33;;;1.70;;
31848;SDS011;18414;59.352;18.152;2023-05-07T11:52:16;2.53;;;1.80;;
31848;SDS011;18414;59.352;18.152;2023-05-07T11:54:48;4.83;;;1.77;;
31848;SDS011;18414;59.352;18.152;2023-05-07T11:57:14;2.77;;;1.43;;
31848;SDS011;18414;59.352;18.152;2023-05-07T11:59:40;2.83;;;1.30;;
31848;SDS011;18414;59.352;18.152;2023-05-07T12:02:06;2.47;;;1.60;;
31848;SDS011;18414;59.352;18.152;2023-05-07T12:04:32;2.80;;;1.60;;
31848;SDS011;18414;59.352;18.152;2023-05-07T12:06:57;1.53;;;1.40;;
31848;SDS011;18414;59.352;18.152;2023-05-07T12:09:23;3.43;;;1.73;;
31848;SDS011;18414;59.352;18.152;2023-05-07T12:11:48;2.50;;;1.53;;
31848;SDS011;18414;59.352;18.152;2023-05-07T12:14:13;2.00;;;1.73;;
31848;SDS011;18414;59.352;18.152;2023-05-07T12:16:40;3.87;;;1.90;;
31848;SDS011;18414;59.352;18.152;2023-05-07T12:19:06;1.97;;;1.57;;
31848;SDS011;18414;59.352;18.152;2023-05-07T12:21:33;2.70;;;1.53;;
31848;SDS011;18414;59.352;18.152;2023-05-07T12:23:59;2.23;;;1.50;;
31848;SDS011;18414;59.352;18.152;2023-05-07T12:26:25;4.33;;;1.50;;
31848;SDS011;18414;59.352;18.152;2023-05-07T12:28:50;5.63;;;1.60;;
31848;SDS011;18414;59.352;18.152;2023-05-07T12:31:17;4.17;;;1.77;;
31848;SDS011;18414;59.352;18.152;2023-05-07T12:33:42;2.73;;;1.57;;
31848;SDS011;18414;59.352;18.152;2023-05-07T12:36:08;2.30;;;1.50;;
31848;SDS011;18414;59.352;18.152;2023-05-07T12:38:39;2.07;;;1.40;;
31848;SDS011;18414;59.352;18.152;2023-05-07T12:41:09;2.33;;;1.60;;
31848;SDS011;18414;59.352;18.152;2023-05-07T12:43:35;3.80;;;1.57;;
31848;SDS011;18414;59.352;18.152;2023-05-07T12:46:04;3.80;;;1.63;;
31848;SDS011;18414;59.352;18.152;2023-05-07T12:48:31;5.37;;;1.50;;
31848;SDS011;18414;59.352;18.152;2023-05-07T12:50:57;4.53;;;1.57;;
31848;SDS011;18414;59.352;18.152;2023-05-07T12:53:24;3.63;;;1.43;;
31848;SDS011;18414;59.352;18.152;2023-05-07T12:55:51;1.50;;;1.40;;
31848;SDS011;18414;59.352;18.152;2023-05-07T12:58:21;5.00;;;2.00;;
31848;SDS011;18414;59.352;18.152;2023-05-07T13:00:50;3.47;;;1.40;;
31848;SDS011;18414;59.352;18.152;2023-05-07T13:05:48;2.20;;;1.70;;
31848;SDS011;18414;59.352;18.152;2023-05-07T13:08:22;2.80;;;1.70;;
31848;SDS011;18414;59.352;18.152;2023-05-07T13:10:51;3.73;;;1.60;;
31848;SDS011;18414;59.352;18.152;2023-05-07T13:13:17;3.70;;;1.70;;
31848;SDS011;18414;59.352;18.152;2023-05-07T13:15:43;5.87;;;1.60;;
31848;SDS011;18414;59.352;18.152;2023-05-07T13:18:08;3.00;;;1.50;;
31848;SDS011;18414;59.352;18.152;2023-05-07T13:20:36;4.07;;;1.60;;
31848;SDS011;18414;59.352;18.152;2023-05-07T13:23:01;3.40;;;1.70;;
31848;SDS011;18414;59.352;18.152;2023-05-07T13:25:27;1.73;;;1.40;;
31848;SDS011;18414;59.352;18.152;2023-05-07T13:27:52;3.33;;;1.50;;
31848;SDS011;18414;59.352;18.152;2023-05-07T13:30:17;2.73;;;1.60;;
31848;SDS011;18414;59.352;18.152;2023-05-07T13:32:43;2.07;;;1.50;;
31848;SDS011;18414;59.352;18.152;2023-05-07T13:35:08;2.20;;;1.40;;
31848;SDS011;18414;59.352;18.152;2023-05-07T13:37:34;2.63;;;1.40;;
31848;SDS011;18414;59.352;18.152;2023-05-07T13:39:59;4.20;;;1.70;;
31848;SDS011;18414;59.352;18.152;2023-05-07T13:42:24;1.80;;;1.20;;
31848;SDS011;18414;59.352;18.152;2023-05-07T13:44:50;2.60;;;1.60;;
31848;SDS011;18414;59.352;18.152;2023-05-07T13:47:15;4.00;;;1.60;;
31848;SDS011;18414;59.352;18.152;2023-05-07T13:49:41;3.40;;;1.50;;
31848;SDS011;18414;59.352;18.152;2023-05-07T13:52:06;3.20;;;1.63;;
31848;SDS011;18414;59.352;18.152;2023-05-07T13:54:31;3.00;;;1.30;;
31848;SDS011;18414;59.352;18.152;2023-05-07T13:56:57;2.00;;;1.33;;
31848;SDS011;18414;59.352;18.152;2023-05-07T13:59:22;3.70;;;1.50;;
31848;SDS011;18414;59.352;18.152;2023-05-07T14:01:47;2.90;;;1.60;;
31848;SDS011;18414;59.352;18.152;2023-05-07T14:04:13;2.47;;;1.57;;
31848;SDS011;18414;59.352;18.152;2023-05-07T14:06:38;4.03;;;1.70;;
31848;SDS011;18414;59.352;18.152;2023-05-07T14:09:04;3.30;;;1.67;;
31848;SDS011;18414;59.352;18.152;2023-05-07T14:11:29;4.97;;;1.87;;
31848;SDS011;18414;59.352;18.152;2023-05-07T14:13:54;2.20;;;1.57;;
31848;SDS011;18414;59.352;18.152;2023-05-07T14:16:21;1.40;;;1.30;;
31848;SDS011;18414;59.352;18.152;2023-05-07T14:18:47;5.93;;;1.43;;
31848;SDS011;18414;59.352;18.152;2023-05-07T14:21:12;5.37;;;1.60;;
31848;SDS011;18414;59.352;18.152;2023-05-07T14:23:38;2.07;;;1.50;;
31848;SDS011;18414;59.352;18.152;2023-05-07T14:26:03;2.00;;;1.50;;
31848;SDS011;18414;59.352;18.152;2023-05-07T14:28:28;1.93;;;1.50;;
31848;SDS011;18414;59.352;18.152;2023-05-07T14:30:54;2.73;;;1.53;;
31848;SDS011;18414;59.352;18.152;2023-05-07T14:33:19;1.70;;;1.60;;
31848;SDS011;18414;59.352;18.152;2023-05-07T14:35:44;1.57;;;1.40;;
31848;SDS011;18414;59.352;18.152;2023-05-07T14:38:13;5.13;;;1.50;;
31848;SDS011;18414;59.352;18.152;2023-05-07T14:40:39;3.27;;;1.63;;
31848;SDS011;18414;59.352;18.152;2023-05-07T14:43:04;3.53;;;1.47;;